createdAt,value
2022-09-25T00:00:00.322Z,0.0
2022-09-25T00:05:00.295Z,0.0
2022-09-25T00:10:00.304Z,0.0
2022-09-25T00:15:00.322Z,0.0
2022-09-25T00:20:00.358Z,0.0
2022-09-25T00:25:00.290Z,0.0
2022-09-25T00:30:00.342Z,0.0
2022-09-25T00:35:00.611Z,0.0
2022-09-25T00:40:00.400Z,0.0
2022-09-25T00:45:00.303Z,0.0
2022-09-25T00:50:00.437Z,0.0
2022-09-25T00:55:00.273Z,0.0
2022-09-25T01:00:00.336Z,0.0
2022-09-25T01:05:00.683Z,0.0
2022-09-25T01:10:00.320Z,0.0
2022-09-25T01:15:00.463Z,0.0
2022-09-25T01:20:00.446Z,0.0
2022-09-25T01:25:00.359Z,0.0
2022-09-25T01:30:00.401Z,0.0
2022-09-25T01:35:00.318Z,0.0
2022-09-25T01:40:00.301Z,0.0
2022-09-25T01:45:00.323Z,0.0
2022-09-25T01:50:00.323Z,0.0
2022-09-25T01:55:00.289Z,0.0
2022-09-25T02:00:00.358Z,0.0
2022-09-25T02:05:00.398Z,1.4
2022-09-25T02:10:00.324Z,1.8
2022-09-25T02:15:00.455Z,1.4
2022-09-25T02:20:00.302Z,3.2
2022-09-25T02:25:00.283Z,2.5
2022-09-25T02:30:00.343Z,2.2
2022-09-25T02:35:00.351Z,1.4
2022-09-25T02:40:00.316Z,1.8
2022-09-25T02:45:00.332Z,0.0
2022-09-25T02:50:00.357Z,0.0
2022-09-25T02:55:00.275Z,0.0
2022-09-25T03:00:00.392Z,1.4
2022-09-25T03:05:00.347Z,1.4
2022-09-25T03:10:00.311Z,0.0
2022-09-25T03:15:00.319Z,0.0
2022-09-25T03:20:00.309Z,0.0
2022-09-25T03:25:00.304Z,0.0
2022-09-25T03:30:00.386Z,0.0
2022-09-25T03:35:00.308Z,0.0
2022-09-25T03:40:00.351Z,0.0
2022-09-25T03:45:00.325Z,0.0
2022-09-25T03:50:00.319Z,0.0
2022-09-25T03:55:00.315Z,0.0
2022-09-25T04:00:00.348Z,0.0
2022-09-25T04:05:00.300Z,0.0
2022-09-25T04:10:00.319Z,0.0
2022-09-25T04:15:00.317Z,0.0
2022-09-25T04:20:00.372Z,0.0
2022-09-25T04:25:00.296Z,0.0
2022-09-25T04:30:00.333Z,0.0
2022-09-25T04:35:00.747Z,0.0
2022-09-25T04:40:00.339Z,0.0
2022-09-25T04:45:00.314Z,0.0
2022-09-25T04:50:00.315Z,0.0
2022-09-25T04:55:00.323Z,0.0
2022-09-25T05:00:00.347Z,0.0
2022-09-25T05:05:00.280Z,0.0
2022-09-25T05:10:00.335Z,0.0
2022-09-25T05:15:00.327Z,0.0
2022-09-25T05:20:00.359Z,0.0
2022-09-25T05:25:00.294Z,0.0
2022-09-25T05:30:00.319Z,0.0
2022-09-25T05:35:00.304Z,0.0
2022-09-25T05:40:00.321Z,0.0
2022-09-25T05:45:07.860Z,2.2
2022-09-25T05:50:00.271Z,0.0
2022-09-25T05:55:00.285Z,0.0
2022-09-25T06:00:00.352Z,0.0
2022-09-25T06:05:00.309Z,0.0
2022-09-25T06:10:00.304Z,0.0
2022-09-25T06:15:00.633Z,0.0
2022-09-25T06:20:00.308Z,0.0
2022-09-25T06:25:00.316Z,0.0
2022-09-25T06:30:00.316Z,0.0
2022-09-25T06:35:00.314Z,0.0
2022-09-25T06:40:00.344Z,3.6
2022-09-25T06:45:00.297Z,3.6
2022-09-25T06:50:00.293Z,4.7
2022-09-25T06:55:00.299Z,2.2
2022-09-25T07:00:02.174Z,1.4
2022-09-25T07:05:00.378Z,0.0
2022-09-25T07:10:00.409Z,0.0
2022-09-25T07:15:00.311Z,0.0
2022-09-25T07:20:00.343Z,2.2
2022-09-25T07:25:00.847Z,1.8
2022-09-25T07:30:00.303Z,2.5
2022-09-25T07:35:00.304Z,2.2
2022-09-25T07:40:00.301Z,0.0
2022-09-25T07:45:00.333Z,0.0
2022-09-25T07:50:00.345Z,0.0
2022-09-25T07:55:00.264Z,3.6
2022-09-25T08:00:00.339Z,2.9
2022-09-25T08:05:00.275Z,0.0
2022-09-25T08:10:00.349Z,0.0
2022-09-25T08:15:00.287Z,3.6
2022-09-25T08:20:00.330Z,0.0
2022-09-25T08:25:00.647Z,0.0
2022-09-25T08:30:00.314Z,0.0
2022-09-25T08:35:00.304Z,3.2
2022-09-25T08:40:00.318Z,1.8
2022-09-25T08:45:21.831Z,0.0
2022-09-25T08:50:00.436Z,1.8
2022-09-25T08:55:00.308Z,2.5
2022-09-25T09:00:03.292Z,0.0
2022-09-25T09:05:00.290Z,0.0
2022-09-25T09:10:00.334Z,0.0
2022-09-25T09:15:00.305Z,2.2
2022-09-25T09:20:00.372Z,0.0
2022-09-25T09:25:00.264Z,0.0
2022-09-25T09:30:06.473Z,4.0
2022-09-25T09:35:07.634Z,4.0
2022-09-25T09:40:00.599Z,0.0
2022-09-25T09:45:00.338Z,0.0
2022-09-25T09:50:00.314Z,2.9
2022-09-25T09:55:00.279Z,6.1
2022-09-25T10:00:05.931Z,2.5
2022-09-25T10:05:00.283Z,0.0
2022-09-25T10:10:00.383Z,6.8
2022-09-25T10:15:00.318Z,0.0
2022-09-25T10:20:00.282Z,4.7
2022-09-25T10:25:00.267Z,2.2
2022-09-25T10:30:00.318Z,0.0
2022-09-25T10:35:00.384Z,2.2
2022-09-25T10:40:00.302Z,4.3
2022-09-25T10:45:00.336Z,6.5
2022-09-25T10:50:00.316Z,3.2
2022-09-25T10:55:00.336Z,5.4
2022-09-25T11:00:00.357Z,3.2
2022-09-25T11:05:00.283Z,7.6
2022-09-25T11:10:00.855Z,2.2
2022-09-25T11:15:00.335Z,2.9
2022-09-25T11:20:00.308Z,11.5
2022-09-25T11:25:01.930Z,2.2
2022-09-25T11:30:00.326Z,3.6
2022-09-25T11:35:00.311Z,6.8
2022-09-25T11:40:00.407Z,4.7
2022-09-25T11:45:00.336Z,5.0
2022-09-25T14:35:00.335Z,5.4
2022-09-25T14:40:00.308Z,6.1
2022-09-25T14:45:00.349Z,6.8
2022-09-25T14:50:00.387Z,3.6
2022-09-25T14:55:00.362Z,4.3
2022-09-25T15:00:00.371Z,6.1
2022-09-25T15:05:00.320Z,7.6
2022-09-25T15:10:00.361Z,6.1
2022-09-25T15:15:00.328Z,10.4
2022-09-25T15:20:00.329Z,4.0
2022-09-25T15:25:00.372Z,5.0
2022-09-25T15:30:00.494Z,4.0
2022-09-25T15:35:00.346Z,5.0
2022-09-25T15:40:00.379Z,5.4
2022-09-25T15:45:00.352Z,7.9
2022-09-25T15:50:00.350Z,4.3
2022-09-25T15:55:00.315Z,1.4
2022-09-25T16:00:00.624Z,3.2
2022-09-25T16:05:00.338Z,3.6
2022-09-25T16:10:00.716Z,5.0
2022-09-25T16:15:00.378Z,4.7
2022-09-25T16:20:00.395Z,4.0
2022-09-25T16:25:00.343Z,6.1
2022-09-25T16:30:05.048Z,2.5
2022-09-25T16:35:00.338Z,2.5
2022-09-25T16:40:00.340Z,5.0
2022-09-25T16:45:00.366Z,1.8
2022-09-25T16:50:00.402Z,0.0
2022-09-25T16:55:01.237Z,2.2
2022-09-25T17:00:00.563Z,0.0
2022-09-25T17:05:00.318Z,0.0
2022-09-25T17:10:00.371Z,0.0
2022-09-25T17:15:00.345Z,0.0
2022-09-25T17:20:00.372Z,0.0
2022-09-25T17:25:00.328Z,0.0
2022-09-25T17:30:00.342Z,0.0
2022-09-25T17:35:00.363Z,1.8
2022-09-25T17:40:00.353Z,2.5
2022-09-25T17:45:00.386Z,0.0
2022-09-25T17:50:00.376Z,0.0
2022-09-25T17:55:00.348Z,0.0
2022-09-25T18:00:00.467Z,0.0
2022-09-25T18:05:00.331Z,0.0
2022-09-25T18:10:00.394Z,0.0
2022-09-25T18:15:00.393Z,0.0
2022-09-25T18:20:00.397Z,0.0
2022-09-25T18:25:00.366Z,3.2
2022-09-25T18:30:00.368Z,3.2
2022-09-25T18:35:00.362Z,2.2
2022-09-25T18:40:00.481Z,2.5
2022-09-25T18:45:00.354Z,2.5
2022-09-25T18:50:00.379Z,0.0
2022-09-25T18:55:00.406Z,2.5
2022-09-25T19:00:00.475Z,2.5
2022-09-25T19:05:00.354Z,2.5
2022-09-25T19:10:00.356Z,1.8
2022-09-25T19:15:00.346Z,1.8
2022-09-25T19:20:00.387Z,2.2
2022-09-25T19:25:00.387Z,1.8
2022-09-25T19:30:00.353Z,2.2
2022-09-25T19:35:00.364Z,1.4
2022-09-25T19:40:00.364Z,2.2
2022-09-25T19:45:00.314Z,1.4
2022-09-25T19:50:00.346Z,4.3
2022-09-25T19:55:00.319Z,4.7
2022-09-25T20:00:00.349Z,4.0
2022-09-25T20:05:00.304Z,2.2
2022-09-25T20:10:00.354Z,0.0
2022-09-25T20:15:00.328Z,2.2
2022-09-25T20:20:00.325Z,5.8
2022-09-25T20:25:00.317Z,1.8
2022-09-25T20:30:00.353Z,2.5
2022-09-25T20:35:00.311Z,4.7
2022-09-25T20:40:00.327Z,3.2
2022-09-25T20:45:00.313Z,5.8
2022-09-25T20:50:00.349Z,2.2
2022-09-25T20:55:00.320Z,4.0
2022-09-25T21:00:00.372Z,4.7
2022-09-25T21:05:00.285Z,5.8
2022-09-25T21:10:00.330Z,8.3
2022-09-25T21:15:00.319Z,6.5
2022-09-25T21:20:00.328Z,8.3
2022-09-25T21:25:00.295Z,3.2
2022-09-25T21:30:00.354Z,1.8
2022-09-25T21:35:00.280Z,4.0
2022-09-25T21:40:00.328Z,5.0
2022-09-25T21:45:00.315Z,4.7
2022-09-25T21:50:00.331Z,6.5
2022-09-25T21:55:00.293Z,0.0
2022-09-25T22:00:00.434Z,6.1
2022-09-25T22:05:00.299Z,4.0
2022-09-25T22:10:00.292Z,4.0
2022-09-25T22:15:00.329Z,6.1
2022-09-25T22:20:05.899Z,2.2
2022-09-25T22:25:00.306Z,5.8
2022-09-25T22:30:00.401Z,4.3
2022-09-25T22:35:00.276Z,6.5
2022-09-25T22:40:00.333Z,4.0
2022-09-25T22:45:00.313Z,9.7
2022-09-25T22:50:00.452Z,6.8
2022-09-25T22:55:00.311Z,8.6
2022-09-25T23:00:00.730Z,2.9
2022-09-25T23:05:07.007Z,6.8
2022-09-25T23:10:00.310Z,3.6
2022-09-25T23:15:00.313Z,6.5
2022-09-25T23:20:00.444Z,2.9
2022-09-25T23:25:00.300Z,2.5
2022-09-25T23:30:00.336Z,4.7
2022-09-25T23:35:00.284Z,3.6
2022-09-25T23:40:00.310Z,2.5
2022-09-25T23:45:00.334Z,2.9
2022-09-25T23:50:05.223Z,2.5
2022-09-25T23:55:00.293Z,4.3
